Time;durP1;ratioP1;P1;durP2;ratioP2;P2;SDS_P1;SDS_P2;PMS_P1;PMS_P2;Temp;Humidity;BMP_temperature;BMP_pressure;BME280_temperature;BME280_humidity;BME280_pressure;Samples;Min_cycle;Max_cycle;Signal;HPM_P1;HPM_P2
2021/05/18 00:00:30;;;;;;;1.53;0.67;;;10.60;99.90;;;;;;5064634;28;20653;-87
2021/05/18 00:02:56;;;;;;;0.90;0.67;;;10.60;99.90;;;;;;5069722;28;20647;-87
2021/05/18 00:05:25;;;;;;;1.63;0.40;;;10.70;99.90;;;;;;5069754;28;20678;-87
2021/05/18 00:07:56;;;;;;;0.77;0.60;;;10.70;99.90;;;;;;5066723;28;21133;-87
2021/05/18 00:13:10;;;;;;;0.90;0.43;;;10.60;99.90;;;;;;5069553;28;21186;-87
2021/05/18 00:15:37;;;;;;;0.70;0.37;;;10.60;99.90;;;;;;5066445;28;20633;-86
2021/05/18 00:18:06;;;;;;;1.57;0.53;;;10.60;99.90;;;;;;5069872;28;20655;-88
2021/05/18 00:20:34;;;;;;;1.13;0.40;;;10.60;99.90;;;;;;5074741;28;20648;-88
2021/05/18 00:23:02;;;;;;;0.40;0.30;;;10.70;99.90;;;;;;5071691;28;20738;-87
2021/05/18 00:25:30;;;;;;;0.70;0.50;;;10.60;99.90;;;;;;5071176;28;20683;-87
2021/05/18 00:27:56;;;;;;;0.50;0.40;;;10.70;99.90;;;;;;5071594;28;20628;-87
2021/05/18 00:30:24;;;;;;;2.00;0.43;;;10.70;99.90;;;;;;5070119;28;21219;-86
2021/05/18 00:32:51;;;;;;;1.60;0.87;;;10.70;99.90;;;;;;5072334;28;20621;-87
2021/05/18 00:35:17;;;;;;;1.00;0.77;;;10.70;99.90;;;;;;5079369;28;20638;-88
2021/05/18 00:37:44;;;;;;;1.07;0.50;;;10.60;99.90;;;;;;5082303;28;20616;-87
2021/05/18 00:40:14;;;;;;;0.50;0.40;;;10.60;99.90;;;;;;5083284;28;20649;-87
2021/05/18 00:42:47;;;;;;;1.23;0.70;;;10.60;99.90;;;;;;5079554;28;20655;-86
2021/05/18 00:45:16;;;;;;;0.90;0.60;;;10.60;99.90;;;;;;5072660;28;20661;-88
2021/05/18 00:47:42;;;;;;;0.80;0.53;;;10.60;99.90;;;;;;5070497;28;20648;-88
2021/05/18 00:50:10;;;;;;;0.73;0.53;;;10.50;99.90;;;;;;5066879;28;20688;-87
2021/05/18 00:52:38;;;;;;;0.90;0.50;;;10.40;99.90;;;;;;5063945;28;21323;-87
2021/05/18 00:55:07;;;;;;;0.67;0.50;;;10.50;99.90;;;;;;5071796;28;20617;-88
2021/05/18 01:00:20;;;;;;;0.70;0.50;;;10.50;99.90;;;;;;5066840;28;20651;-87
2021/05/18 01:02:47;;;;;;;0.60;0.50;;;10.50;99.90;;;;;;5074953;28;20632;-86
2021/05/18 01:05:18;;;;;;;3.13;0.57;;;10.50;99.90;;;;;;5065509;28;20653;-87
2021/05/18 01:07:46;;;;;;;2.20;0.50;;;10.50;99.90;;;;;;5067276;28;20629;-88
2021/05/18 01:10:17;;;;;;;3.43;0.50;;;10.50;99.90;;;;;;5070112;28;20720;-90
2021/05/18 01:12:44;;;;;;;3.77;0.70;;;10.60;99.90;;;;;;5072555;28;20698;-88
2021/05/18 01:15:12;;;;;;;1.90;0.73;;;10.70;99.90;;;;;;5069613;28;21185;-89
2021/05/18 01:17:39;;;;;;;1.27;0.70;;;10.70;99.90;;;;;;5073913;28;21090;-89
2021/05/18 01:20:10;;;;;;;1.00;0.77;;;10.70;99.90;;;;;;5080050;28;20652;-89
2021/05/18 01:22:44;;;;;;;2.53;0.70;;;10.70;99.90;;;;;;5088866;28;20656;-88
2021/05/18 01:25:12;;;;;;;2.30;1.03;;;10.70;99.90;;;;;;5086999;28;20675;-89
2021/05/18 01:27:38;;;;;;;1.50;0.80;;;10.70;99.90;;;;;;5085047;28;20639;-88
2021/05/18 01:30:06;;;;;;;2.13;1.10;;;10.70;99.90;;;;;;5079136;28;20744;-88
2021/05/18 01:32:32;;;;;;;0.60;0.60;;;10.70;99.90;;;;;;5081376;28;20735;-89
2021/05/18 01:34:59;;;;;;;1.73;0.70;;;10.80;99.90;;;;;;5081409;28;20739;-89
2021/05/18 01:37:25;;;;;;;2.33;1.30;;;10.70;99.90;;;;;;5083689;28;20700;-88
2021/05/18 01:40:10;;;;;;;1.30;1.00;;;10.70;99.90;;;;;;5076008;28;21054;-88
2021/05/18 01:42:46;;;;;;;1.27;0.80;;;10.70;99.90;;;;;;5067922;28;20628;-87
2021/05/18 01:45:16;;;;;;;1.30;0.90;;;10.70;99.90;;;;;;5066057;28;20664;-87
2021/05/18 01:47:47;;;;;;;0.97;0.90;;;10.70;99.90;;;;;;5064000;28;20999;-89
2021/05/18 01:50:16;;;;;;;0.80;0.60;;;10.70;99.90;;;;;;5068122;28;20660;-89
2021/05/18 01:52:42;;;;;;;1.03;0.70;;;10.80;99.90;;;;;;5066745;28;20631;-89
2021/05/18 01:55:15;;;;;;;3.93;1.33;;;10.80;99.90;;;;;;5065120;28;20632;-89
2021/05/18 01:57:43;;;;;;;1.10;1.00;;;10.70;99.90;;;;;;5071822;28;20641;-88
2021/05/18 02:00:13;;;;;;;1.87;1.40;;;10.70;99.90;;;;;;5064534;28;20667;-88
2021/05/18 02:02:41;;;;;;;2.10;0.90;;;10.70;99.90;;;;;;5068495;28;20658;-89
2021/05/18 02:05:11;;;;;;;0.90;0.90;;;10.70;99.90;;;;;;5078700;28;20676;-88
2021/05/18 02:07:39;;;;;;;1.53;0.90;;;10.60;99.90;;;;;;5084419;28;20656;-88
2021/05/18 02:10:08;;;;;;;0.80;0.70;;;10.40;99.90;;;;;;5078759;28;20645;-87
2021/05/18 02:12:35;;;;;;;0.97;0.50;;;10.30;99.90;;;;;;5076727;28;20628;-86
2021/05/18 02:15:07;;;;;;;1.30;0.50;;;10.40;99.90;;;;;;5072160;28;20679;-87
2021/05/18 02:17:37;;;;;;;1.10;0.60;;;10.40;99.90;;;;;;5065181;28;20648;-85
2021/05/18 02:20:14;;;;;;;0.80;0.50;;;10.40;99.90;;;;;;5067388;28;20643;-87
2021/05/18 02:25:35;;;;;;;1.03;0.60;;;10.30;99.90;;;;;;5027156;28;21050;-87
2021/05/18 02:28:04;;;;;;;0.70;0.60;;;10.40;99.90;;;;;;5066630;28;20682;-85
2021/05/18 02:30:31;;;;;;;1.70;1.17;;;10.40;99.90;;;;;;5068577;28;20723;-86
2021/05/18 02:32:57;;;;;;;3.63;1.50;;;10.30;99.90;;;;;;5073912;28;20631;-85
2021/05/18 02:35:24;;;;;;;1.50;1.40;;;10.20;99.90;;;;;;5070766;28;20632;-86
2021/05/18 02:37:50;;;;;;;2.33;1.10;;;10.10;99.90;;;;;;5071054;28;20663;-86
2021/05/18 02:40:19;;;;;;;1.20;0.53;;;10.20;99.90;;;;;;5067327;28;20698;-86
2021/05/18 02:42:47;;;;;;;0.70;0.47;;;10.20;99.90;;;;;;5065743;28;20692;-86
2021/05/18 02:45:23;;;;;;;0.93;0.77;;;10.20;99.90;;;;;;5067024;28;21593;-87
2021/05/18 02:50:36;;;;;;;1.00;0.50;;;10.10;99.90;;;;;;5075078;28;20673;-86
2021/05/18 02:53:03;;;;;;;1.10;0.80;;;10.10;99.90;;;;;;5072850;28;20671;-86
2021/05/18 02:55:36;;;;;;;1.27;0.60;;;10.00;99.90;;;;;;5071202;28;20625;-87
2021/05/18 02:58:03;;;;;;;2.43;0.90;;;10.00;99.90;;;;;;5071002;28;20609;-87
2021/05/18 03:00:30;;;;;;;1.00;0.90;;;10.10;99.90;;;;;;5070716;28;20594;-88
2021/05/18 03:02:57;;;;;;;1.23;0.60;;;10.10;99.90;;;;;;5073918;28;20635;-88
2021/05/18 03:05:25;;;;;;;1.97;1.10;;;10.00;99.90;;;;;;5071178;28;22137;-88
2021/05/18 03:07:53;;;;;;;1.63;0.50;;;10.00;99.90;;;;;;5067372;28;20691;-87
2021/05/18 03:10:20;;;;;;;1.37;0.57;;;10.00;99.90;;;;;;5068718;28;20629;-85
2021/05/18 03:12:46;;;;;;;0.80;0.80;;;10.10;99.90;;;;;;5069284;28;20616;-84
2021/05/18 03:15:14;;;;;;;2.30;0.80;;;10.10;99.90;;;;;;5065030;28;20656;-86
2021/05/18 03:17:42;;;;;;;1.17;0.80;;;10.10;99.90;;;;;;5069165;28;21044;-85
2021/05/18 03:20:11;;;;;;;1.00;0.90;;;10.10;99.90;;;;;;5064033;28;20628;-84
2021/05/18 03:22:37;;;;;;;2.10;0.93;;;10.00;99.90;;;;;;5063266;28;20649;-86
2021/05/18 03:25:04;;;;;;;1.33;0.70;;;10.00;99.90;;;;;;5069132;28;21022;-86
2021/05/18 03:27:31;;;;;;;3.40;0.80;;;10.00;99.90;;;;;;5072528;28;20615;-85
2021/05/18 03:30:01;;;;;;;2.73;1.10;;;10.00;99.90;;;;;;5065913;28;20645;-85
2021/05/18 03:35:14;;;;;;;1.90;0.80;;;10.00;99.90;;;;;;5074682;28;20651;-86
2021/05/18 03:37:49;;;;;;;1.73;0.80;;;10.00;99.90;;;;;;5068689;28;20674;-86
2021/05/18 03:40:17;;;;;;;1.47;0.87;;;10.10;99.90;;;;;;5072690;28;21295;-87
2021/05/18 03:42:47;;;;;;;1.00;0.70;;;10.00;99.90;;;;;;5066190;28;20645;-87
2021/05/18 03:45:17;;;;;;;1.43;0.73;;;10.10;99.90;;;;;;5067239;28;20686;-87
2021/05/18 03:58:54;;;;;;;2.90;0.80;;;10.10;99.90;;;;;;5067362;28;21447;-86
2021/05/18 04:04:14;;;;;;;1.10;0.80;;;10.10;99.90;;;;;;5074608;28;20669;-88
2021/05/18 04:12:26;;;;;;;1.93;0.70;;;10.20;99.90;;;;;;5075155;28;20692;-87
2021/05/18 04:17:45;;;;;;;1.27;0.70;;;10.50;99.90;;;;;;5071147;28;20602;-88
2021/05/18 04:20:22;;;;;;;0.80;0.80;;;10.50;99.90;;;;;;5068772;28;20624;-87
2021/05/18 04:23:12;;;;;;;1.93;0.70;;;10.50;99.90;;;;;;5068751;28;20639;-86
2021/05/18 04:39:29;;;;;;;1.30;0.70;;;10.60;99.90;;;;;;5061330;28;20624;-87
2021/05/18 04:53:11;;;;;;;0.97;0.87;;;10.60;99.90;;;;;;5011029;28;20637;-86
2021/05/18 05:01:12;;;;;;;1.47;0.97;;;10.50;99.90;;;;;;5064846;28;20613;-86
2021/05/18 05:03:57;;;;;;;0.60;0.50;;;10.40;99.90;;;;;;5063219;28;20643;-87
2021/05/18 05:06:36;;;;;;;0.50;0.40;;;10.40;99.90;;;;;;5062464;28;20669;-87
2021/05/18 05:09:10;;;;;;;0.67;0.67;;;10.40;99.90;;;;;;5063169;28;20763;-89
2021/05/18 05:14:24;;;;;;;0.40;0.40;;;10.30;99.90;;;;;;5063188;28;20627;-87
2021/05/18 05:16:52;;;;;;;0.40;0.30;;;10.30;99.90;;;;;;5063201;28;21318;-88
2021/05/18 05:19:21;;;;;;;3.17;2.97;;;10.30;99.90;;;;;;5063970;28;20645;-88
2021/05/18 05:21:47;;;;;;;3.20;1.20;;;10.30;99.90;;;;;;5064660;28;20624;-88
2021/05/18 05:24:14;;;;;;;0.50;0.50;;;10.30;99.90;;;;;;5065930;28;20666;-86
2021/05/18 05:26:42;;;;;;;0.67;0.47;;;10.30;99.90;;;;;;5065620;28;20694;-87
2021/05/18 05:29:09;;;;;;;0.63;0.60;;;10.40;99.90;;;;;;5063688;28;20680;-87
2021/05/18 05:31:36;;;;;;;1.10;0.70;;;10.40;99.90;;;;;;5067015;28;20629;-86
2021/05/18 05:34:03;;;;;;;0.70;0.50;;;10.50;99.90;;;;;;5063999;28;20629;-87
2021/05/18 05:36:30;;;;;;;1.70;0.80;;;10.50;99.90;;;;;;5064129;28;20690;-87
2021/05/18 05:39:05;;;;;;;0.63;0.63;;;10.50;99.90;;;;;;5065556;28;20663;-87
2021/05/18 05:41:32;;;;;;;0.90;0.90;;;10.50;99.90;;;;;;5070045;28;20624;-87
2021/05/18 05:43:59;;;;;;;3.60;0.77;;;10.50;99.90;;;;;;5070239;28;20670;-87
2021/05/18 05:46:26;;;;;;;0.63;0.50;;;10.60;99.90;;;;;;5072181;28;20771;-86
2021/05/18 05:48:53;;;;;;;1.27;0.60;;;10.50;99.90;;;;;;5068582;28;20640;-86
2021/05/18 05:51:21;;;;;;;2.10;0.90;;;10.50;99.90;;;;;;5071058;28;20626;-87
2021/05/18 05:53:49;;;;;;;0.90;0.60;;;10.30;99.90;;;;;;5069555;28;20660;-87
2021/05/18 05:56:16;;;;;;;0.73;0.50;;;10.30;99.90;;;;;;5073424;28;20686;-87
2021/05/18 05:58:43;;;;;;;1.60;0.90;;;10.30;99.90;;;;;;5068939;28;20613;-87
2021/05/18 06:01:11;;;;;;;1.80;0.80;;;10.30;99.90;;;;;;5067708;28;20649;-87
2021/05/18 06:03:38;;;;;;;1.07;0.73;;;10.30;99.90;;;;;;5062109;28;20641;-88
2021/05/18 06:06:06;;;;;;;1.13;0.50;;;10.30;99.90;;;;;;5072494;28;20696;-88
2021/05/18 06:08:37;;;;;;;1.00;0.60;;;10.30;99.90;;;;;;5067596;28;20664;-88
2021/05/18 06:11:09;;;;;;;0.77;0.70;;;10.40;99.90;;;;;;5068260;28;20629;-88
2021/05/18 06:17:00;;;;;;;1.33;0.70;;;10.40;99.90;;;;;;5067341;28;20627;-88
2021/05/18 06:46:54;;;;;;;1.40;0.80;;;10.70;99.90;;;;;;5036566;28;20668;-87
2021/05/18 06:49:21;;;;;;;1.07;0.83;;;10.90;99.90;;;;;;5066018;28;21084;-86
2021/05/18 06:51:48;;;;;;;1.53;1.07;;;11.10;99.90;;;;;;5063503;28;20644;-87
2021/05/18 06:54:15;;;;;;;2.50;1.00;;;11.20;99.90;;;;;;5065724;28;20675;-87
2021/05/18 06:56:43;;;;;;;1.93;1.40;;;11.40;99.90;;;;;;5067472;28;20660;-87
2021/05/18 07:01:58;;;;;;;1.80;1.00;;;11.60;99.90;;;;;;5068835;28;20755;-87
2021/05/18 07:04:26;;;;;;;2.90;0.93;;;11.60;99.90;;;;;;5064240;28;20720;-86
2021/05/18 07:06:56;;;;;;;1.40;1.00;;;11.60;99.90;;;;;;5060471;28;20668;-86
2021/05/18 07:09:25;;;;;;;1.43;1.00;;;11.70;99.90;;;;;;5068022;28;21048;-86
2021/05/18 07:11:51;;;;;;;1.00;0.90;;;11.70;99.90;;;;;;5064735;28;20657;-86
2021/05/18 07:14:18;;;;;;;1.30;0.90;;;11.80;99.90;;;;;;5058712;28;20668;-86
2021/05/18 07:16:44;;;;;;;2.57;0.83;;;11.90;99.90;;;;;;5063396;28;20933;-86
2021/05/18 07:19:10;;;;;;;1.57;0.90;;;12.10;99.90;;;;;;5060665;28;20665;-86
2021/05/18 07:21:38;;;;;;;1.23;1.00;;;12.30;99.90;;;;;;5063310;28;20656;-86
2021/05/18 07:24:09;;;;;;;1.90;0.60;;;12.30;99.90;;;;;;5062826;28;20660;-85
2021/05/18 07:26:36;;;;;;;0.70;0.60;;;12.20;99.90;;;;;;5062977;28;20752;-83
2021/05/18 07:29:03;;;;;;;1.53;1.03;;;12.10;99.90;;;;;;5064399;28;20653;-84
2021/05/18 07:31:31;;;;;;;1.37;0.70;;;12.30;99.90;;;;;;5063730;28;20675;-84
2021/05/18 07:33:57;;;;;;;2.07;1.00;;;12.50;99.90;;;;;;5057673;28;20687;-84
2021/05/18 07:36:23;;;;;;;0.83;0.80;;;12.60;99.90;;;;;;5061320;28;20644;-84
2021/05/18 07:38:51;;;;;;;1.00;0.77;;;12.60;99.90;;;;;;5062630;28;20733;-84
2021/05/18 07:41:18;;;;;;;3.00;0.77;;;12.80;99.90;;;;;;5058425;28;20657;-83
2021/05/18 07:43:44;;;;;;;1.30;1.20;;;12.90;99.90;;;;;;5058094;28;21028;-85
2021/05/18 07:46:16;;;;;;;0.90;0.60;;;13.00;99.90;;;;;;5056285;28;20665;-85
2021/05/18 07:48:45;;;;;;;1.77;0.93;;;13.00;99.90;;;;;;5054347;28;20645;-84
2021/05/18 07:51:21;;;;;;;0.93;0.50;;;13.00;99.90;;;;;;5058702;28;20641;-85
2021/05/18 07:59:36;;;;;;;1.70;1.20;;;13.00;99.90;;;;;;4996250;28;20625;-85
2021/05/18 08:07:34;;;;;;;0.60;0.60;;;12.70;99.90;;;;;;5059434;28;20679;-84
2021/05/18 08:10:07;;;;;;;1.43;0.60;;;12.60;99.90;;;;;;5059569;28;20987;-85
2021/05/18 08:12:35;;;;;;;0.57;0.50;;;12.40;99.90;;;;;;5058717;28;20665;-85
2021/05/18 08:15:19;;;;;;;0.50;0.50;;;12.20;99.90;;;;;;5059520;28;20629;-86
2021/05/18 08:17:49;;;;;;;6.40;0.80;;;12.20;99.90;;;;;;5060597;28;20681;-83
2021/05/18 08:20:35;;;;;;;0.77;0.60;;;12.10;99.90;;;;;;5062017;28;20636;-85
2021/05/18 08:46:35;;;;;;;1.67;1.57;;;11.90;99.90;;;;;;5058337;28;21228;-85
2021/05/18 10:27:06;;;;;;;1.77;0.90;;;12.50;99.90;;;;;;5038642;28;20644;-85
2021/05/18 10:37:43;;;;;;;1.90;1.43;;;12.80;99.90;;;;;;5060398;28;20920;-85
2021/05/18 10:40:32;;;;;;;2.17;1.00;;;13.00;99.90;;;;;;5066138;28;20671;-85
2021/05/18 10:43:18;;;;;;;3.20;1.03;;;13.50;99.90;;;;;;5068969;28;20681;-84
2021/05/18 10:46:07;;;;;;;3.43;0.80;;;14.20;99.90;;;;;;5063852;28;20636;-84
2021/05/18 10:49:00;;;;;;;1.77;0.70;;;14.70;99.90;;;;;;5065194;28;20743;-85
2021/05/18 10:51:34;;;;;;;1.00;0.90;;;14.90;99.90;;;;;;5064965;28;20799;-84
2021/05/18 10:54:19;;;;;;;1.63;1.00;;;14.90;99.90;;;;;;5059923;28;20625;-86
2021/05/18 10:57:04;;;;;;;4.47;1.70;;;15.30;99.90;;;;;;5062223;28;21195;-84
2021/05/18 10:59:33;;;;;;;1.00;0.77;;;15.80;99.90;;;;;;5063176;28;20645;-85
2021/05/18 11:02:03;;;;;;;1.67;0.63;;;16.10;99.90;;;;;;5071878;28;20616;-84
2021/05/18 11:04:33;;;;;;;5.10;1.03;;;16.20;99.90;;;;;;5062371;28;20617;-84
2021/05/18 11:07:01;;;;;;;2.43;0.93;;;16.40;99.90;;;;;;5065515;28;20649;-85
2021/05/18 11:09:29;;;;;;;1.63;0.90;;;16.80;99.90;;;;;;5061907;28;20700;-85
2021/05/18 11:12:05;;;;;;;1.93;0.50;;;17.00;99.90;;;;;;5064785;28;20613;-84
2021/05/18 11:14:39;;;;;;;1.40;0.60;;;17.20;98.90;;;;;;5066324;28;20631;-84
2021/05/18 11:17:14;;;;;;;2.03;0.97;;;16.90;97.10;;;;;;5060084;28;21182;-83
2021/05/18 11:20:00;;;;;;;2.13;0.70;;;16.30;98.10;;;;;;5066309;28;20620;-84
2021/05/18 11:25:13;;;;;;;2.60;0.57;;;16.70;96.20;;;;;;5066501;28;20659;-84
2021/05/18 11:27:40;;;;;;;1.70;0.60;;;16.90;96.30;;;;;;5065025;28;20818;-86
2021/05/18 11:30:08;;;;;;;2.40;0.70;;;17.00;97.40;;;;;;5068884;28;20730;-86
2021/05/18 11:32:36;;;;;;;3.90;0.70;;;17.50;95.00;;;;;;5064231;28;21188;-86
2021/05/18 11:35:05;;;;;;;1.77;0.70;;;17.70;93.50;;;;;;5066998;28;20648;-86
2021/05/18 11:37:32;;;;;;;1.00;0.70;;;17.80;92.10;;;;;;5063499;28;20625;-85
2021/05/18 11:40:17;;;;;;;2.73;0.70;;;18.20;92.80;;;;;;5069971;28;20590;-85
2021/05/18 11:42:44;;;;;;;1.90;0.50;;;18.70;92.30;;;;;;5059329;28;20634;-86
2021/05/18 11:45:15;;;;;;;1.10;0.57;;;17.90;93.50;;;;;;5066734;28;20672;-86
2021/05/18 11:47:43;;;;;;;1.53;0.87;;;17.10;92.30;;;;;;5068835;28;20695;-86
2021/05/18 11:50:24;;;;;;;1.23;1.10;;;16.70;94.10;;;;;;5061790;28;20767;-85
2021/05/18 11:52:52;;;;;;;1.70;0.77;;;16.70;95.00;;;;;;5070189;28;21255;-85
2021/05/18 11:55:25;;;;;;;1.60;0.70;;;16.30;95.20;;;;;;5070200;28;20660;-85
2021/05/18 11:57:53;;;;;;;4.50;1.10;;;16.00;97.90;;;;;;5069501;28;20641;-84
2021/05/18 12:00:31;;;;;;;0.63;0.40;;;16.00;99.40;;;;;;5069672;28;20636;-84
2021/05/18 12:03:07;;;;;;;0.50;0.40;;;15.20;98.00;;;;;;5065959;28;21136;-86
2021/05/18 12:05:34;;;;;;;2.00;0.70;;;14.10;99.90;;;;;;5064174;28;21168;-85
2021/05/18 12:08:00;;;;;;;1.83;0.60;;;13.10;99.90;;;;;;5059268;28;21541;-85
2021/05/18 12:10:32;;;;;;;1.03;0.47;;;12.80;99.90;;;;;;5062252;28;20953;-86
2021/05/18 12:13:00;;;;;;;2.77;0.90;;;12.60;99.90;;;;;;5066163;28;20621;-85
2021/05/18 12:15:28;;;;;;;1.67;0.70;;;12.70;99.90;;;;;;5063217;28;20688;-85
2021/05/18 12:17:56;;;;;;;1.73;0.80;;;13.10;99.90;;;;;;5056099;28;21343;-85
2021/05/18 12:20:23;;;;;;;2.27;0.70;;;14.40;99.90;;;;;;5060675;28;20720;-86
2021/05/18 12:22:52;;;;;;;1.53;0.60;;;15.10;99.90;;;;;;5062900;28;20582;-86
2021/05/18 12:25:33;;;;;;;1.43;0.77;;;15.40;99.90;;;;;;5065083;28;20985;-86
2021/05/18 12:28:11;;;;;;;1.70;0.90;;;16.40;99.90;;;;;;5065329;28;20733;-86
2021/05/18 12:30:41;;;;;;;1.67;1.00;;;17.20;99.90;;;;;;5065896;28;20620;-85
2021/05/18 12:33:11;;;;;;;1.50;1.00;;;17.10;99.20;;;;;;5059999;28;20621;-87
2021/05/18 12:35:37;;;;;;;2.80;0.90;;;16.90;98.90;;;;;;5064131;28;21306;-85
2021/05/18 12:38:15;;;;;;;1.50;0.90;;;18.20;99.90;;;;;;5061074;28;20620;-85
2021/05/18 12:40:44;;;;;;;2.30;1.13;;;19.60;94.90;;;;;;5064038;28;21190;-86
2021/05/18 12:43:13;;;;;;;1.20;0.60;;;20.20;91.30;;;;;;5062777;28;20652;-85
2021/05/18 12:45:42;;;;;;;1.33;1.13;;;20.50;84.70;;;;;;5063496;28;21250;-86
2021/05/18 12:48:12;;;;;;;1.37;0.90;;;21.00;82.80;;;;;;5062865;28;21094;-86
2021/05/18 12:50:43;;;;;;;1.37;0.60;;;20.80;80.90;;;;;;5063318;28;20643;-86
2021/05/18 12:53:24;;;;;;;0.57;0.40;;;20.80;80.70;;;;;;5062500;28;21207;-87
2021/05/18 12:55:52;;;;;;;1.23;0.70;;;21.20;78.40;;;;;;5062468;28;21462;-86
2021/05/18 12:58:27;;;;;;;1.03;0.50;;;21.50;75.00;;;;;;5063769;28;20677;-86
2021/05/18 13:01:10;;;;;;;1.77;0.67;;;21.80;73.80;;;;;;5065180;28;20612;-86
2021/05/18 13:03:38;;;;;;;0.80;0.50;;;21.40;72.70;;;;;;5058010;28;21069;-85
2021/05/18 13:06:06;;;;;;;3.07;0.60;;;20.50;74.30;;;;;;5059332;28;20718;-85
2021/05/18 13:08:35;;;;;;;2.63;0.70;;;19.00;80.50;;;;;;5060895;28;20625;-86
2021/05/18 13:11:09;;;;;;;2.07;0.63;;;18.60;83.20;;;;;;5061605;28;20613;-84
2021/05/18 13:13:46;;;;;;;2.10;0.77;;;17.80;90.30;;;;;;5062270;28;20641;-85
2021/05/18 13:16:16;;;;;;;1.90;0.80;;;17.30;94.30;;;;;;5062337;28;20633;-87
2021/05/18 13:18:54;;;;;;;1.07;0.50;;;16.90;99.50;;;;;;5060928;28;20633;-85
2021/05/18 13:21:23;;;;;;;0.63;0.60;;;17.10;97.50;;;;;;5063479;28;21183;-84
2021/05/18 13:24:11;;;;;;;1.97;0.93;;;16.90;93.10;;;;;;5067966;28;20609;-84
2021/05/18 13:26:39;;;;;;;2.40;0.93;;;16.90;92.80;;;;;;5063918;28;20648;-86
2021/05/18 13:29:08;;;;;;;1.53;1.00;;;16.70;92.70;;;;;;5059391;28;20616;-87
2021/05/18 13:31:38;;;;;;;1.47;1.00;;;16.30;93.70;;;;;;5060248;28;20620;-86
2021/05/18 13:34:06;;;;;;;1.67;0.60;;;16.30;94.90;;;;;;5063904;28;21052;-86
2021/05/18 13:36:33;;;;;;;1.90;0.70;;;16.60;96.00;;;;;;5064544;28;20620;-85
2021/05/18 13:39:00;;;;;;;2.13;1.00;;;17.40;94.80;;;;;;5062625;28;21257;-86
2021/05/18 13:41:27;;;;;;;0.80;0.60;;;18.30;93.50;;;;;;5063154;28;20625;-87
2021/05/18 13:43:54;;;;;;;1.10;0.43;;;19.30;92.70;;;;;;5065814;28;20620;-87
2021/05/18 13:46:20;;;;;;;0.60;0.60;;;19.90;90.30;;;;;;5066202;28;20664;-87
2021/05/18 13:48:48;;;;;;;1.80;0.60;;;19.60;89.10;;;;;;5062586;28;20606;-88
2021/05/18 13:51:16;;;;;;;1.30;0.70;;;19.90;88.50;;;;;;5064445;28;20605;-86
2021/05/18 13:53:43;;;;;;;1.07;0.43;;;20.40;87.30;;;;;;5067008;28;21254;-85
2021/05/18 13:56:10;;;;;;;2.20;0.60;;;20.70;88.30;;;;;;5060940;28;20617;-86
2021/05/18 13:58:38;;;;;;;0.97;0.60;;;21.10;85.40;;;;;;5061315;28;20629;-86
2021/05/18 14:01:05;;;;;;;2.10;0.60;;;21.20;82.80;;;;;;5062117;28;20617;-85
2021/05/18 14:03:32;;;;;;;1.87;0.50;;;20.50;86.40;;;;;;5067843;28;20620;-87
2021/05/18 14:05:59;;;;;;;0.60;0.40;;;20.70;88.40;;;;;;5070578;28;20688;-86
2021/05/18 14:08:27;;;;;;;2.03;0.60;;;20.70;87.10;;;;;;5066993;28;20627;-88
2021/05/18 14:11:00;;;;;;;1.93;0.70;;;20.30;87.80;;;;;;5062628;28;20632;-87
2021/05/18 14:13:31;;;;;;;1.83;0.70;;;19.10;90.70;;;;;;5063187;28;20627;-87
2021/05/18 14:15:57;;;;;;;3.10;1.10;;;18.30;92.90;;;;;;5067720;28;20740;-86
2021/05/18 14:18:24;;;;;;;0.83;0.67;;;17.80;94.40;;;;;;5063387;28;21139;-85
2021/05/18 14:20:51;;;;;;;1.47;0.70;;;17.20;95.80;;;;;;5069145;28;20632;-85
2021/05/18 14:23:22;;;;;;;1.27;0.60;;;16.90;95.90;;;;;;5075156;28;20631;-88
2021/05/18 14:25:49;;;;;;;2.53;1.00;;;16.40;97.40;;;;;;5069220;28;20656;-84
2021/05/18 14:28:17;;;;;;;1.00;0.50;;;15.40;99.90;;;;;;5071300;28;21464;-86
2021/05/18 14:30:43;;;;;;;1.40;0.70;;;14.40;99.90;;;;;;5072503;28;20625;-85
2021/05/18 14:33:10;;;;;;;1.33;0.80;;;14.20;99.90;;;;;;5072045;28;20633;-86
2021/05/18 14:35:44;;;;;;;0.80;0.40;;;14.20;99.90;;;;;;5077542;28;20713;-88
2021/05/18 14:38:13;;;;;;;2.23;0.80;;;14.40;99.90;;;;;;5074352;28;20649;-86
2021/05/18 14:42:45;;;;;;;1.13;0.77;;;14.40;99.90;;;;;;5077331;28;20640;-85
2021/05/18 14:43:57;;;;;;;2.80;0.70;;;15.10;99.90;;;;;;5075039;28;20613;-85
2021/05/18 14:46:27;;;;;;;1.67;1.10;;;15.70;99.90;;;;;;5072500;28;21297;-85
2021/05/18 14:57:22;;;;;;;1.00;0.53;;;19.70;91.00;;;;;;5051999;28;20623;-87
2021/05/18 14:59:48;;;;;;;1.90;0.77;;;20.70;87.60;;;;;;5068974;28;21243;-87
2021/05/18 15:02:15;;;;;;;0.83;0.50;;;22.00;81.70;;;;;;5070860;28;20997;-86
2021/05/18 15:04:42;;;;;;;0.80;0.40;;;22.40;78.30;;;;;;5066251;28;20669;-87
2021/05/18 15:07:08;;;;;;;1.23;0.60;;;22.70;76.90;;;;;;5066536;28;20718;-88
2021/05/18 15:09:37;;;;;;;0.70;0.50;;;22.90;75.20;;;;;;5062864;28;20633;-87
2021/05/18 15:12:04;;;;;;;2.97;0.50;;;22.30;74.80;;;;;;5065066;28;20805;-86
2021/05/18 15:14:32;;;;;;;2.93;0.90;;;21.80;74.30;;;;;;5067071;28;20766;-86
2021/05/18 15:16:59;;;;;;;1.53;0.70;;;21.10;75.90;;;;;;5071484;28;20621;-85
2021/05/18 15:19:27;;;;;;;0.63;0.43;;;21.30;76.60;;;;;;5069782;28;20703;-87
2021/05/18 15:21:54;;;;;;;2.13;0.90;;;21.00;75.50;;;;;;5067876;28;20635;-86
2021/05/18 15:24:21;;;;;;;2.80;0.97;;;21.20;76.10;;;;;;5072241;28;20707;-87
2021/05/18 15:26:47;;;;;;;0.60;0.40;;;20.60;76.00;;;;;;5065354;28;21269;-87
2021/05/18 15:29:14;;;;;;;3.60;0.70;;;19.70;78.00;;;;;;5072153;28;20702;-86
2021/05/18 15:31:42;;;;;;;1.80;1.03;;;19.70;80.30;;;;;;5068523;28;20629;-87
2021/05/18 15:34:09;;;;;;;0.97;0.60;;;19.50;81.10;;;;;;5065828;28;20656;-87
2021/05/18 15:36:37;;;;;;;2.33;1.07;;;19.40;81.50;;;;;;5070300;28;21004;-87
2021/05/18 15:39:05;;;;;;;1.20;0.70;;;19.70;81.10;;;;;;5067767;28;20720;-86
2021/05/18 15:41:31;;;;;;;1.07;0.60;;;21.20;79.50;;;;;;5067976;28;20621;-87
2021/05/18 15:43:57;;;;;;;1.90;1.80;;;22.10;75.90;;;;;;5070560;28;20637;-87
2021/05/18 15:46:25;;;;;;;0.90;0.63;;;22.40;73.10;;;;;;5068169;28;20718;-87
2021/05/18 15:48:53;;;;;;;1.73;0.80;;;22.10;74.50;;;;;;5067828;28;20633;-87
2021/05/18 15:51:19;;;;;;;2.23;0.60;;;22.80;72.30;;;;;;5064927;28;20609;-86
2021/05/18 15:53:46;;;;;;;1.00;0.50;;;23.80;68.30;;;;;;5069220;28;20629;-86
2021/05/18 15:56:12;;;;;;;2.50;0.63;;;24.20;68.10;;;;;;5066654;28;20639;-86
2021/05/18 15:58:39;;;;;;;2.03;0.43;;;24.10;64.00;;;;;;5066060;28;20616;-87
2021/05/18 16:01:05;;;;;;;1.03;0.50;;;23.80;66.40;;;;;;5065140;28;20686;-87
2021/05/18 16:03:34;;;;;;;1.40;0.60;;;23.80;66.80;;;;;;5069246;28;20621;-87
2021/05/18 16:06:03;;;;;;;1.00;0.60;;;22.00;66.90;;;;;;5073562;28;21219;-86
2021/05/18 16:11:15;;;;;;;1.20;0.90;;;19.70;73.70;;;;;;5068348;28;21227;-87
2021/05/18 16:13:42;;;;;;;1.37;0.87;;;18.70;78.00;;;;;;5070506;28;20690;-86
2021/05/18 16:16:10;;;;;;;1.60;0.80;;;18.50;84.10;;;;;;5072677;28;20620;-86
2021/05/18 16:18:38;;;;;;;1.20;1.10;;;17.90;86.70;;;;;;5069916;28;21206;-86
2021/05/18 16:21:07;;;;;;;4.20;0.80;;;17.50;90.10;;;;;;5069441;28;20655;-87
2021/05/18 16:23:36;;;;;;;1.80;0.80;;;17.30;89.80;;;;;;5072235;28;20636;-84
2021/05/18 16:26:05;;;;;;;2.50;1.10;;;17.20;90.60;;;;;;5065940;28;20665;-85
2021/05/18 16:28:31;;;;;;;0.93;0.70;;;16.60;92.90;;;;;;5066837;28;21256;-85
2021/05/18 16:30:58;;;;;;;1.23;0.60;;;15.80;94.90;;;;;;5072599;28;20624;-85
2021/05/18 16:33:25;;;;;;;1.47;0.70;;;15.00;97.80;;;;;;5065587;28;20629;-85
2021/05/18 16:35:51;;;;;;;3.73;0.87;;;13.80;99.90;;;;;;5069545;28;21285;-87
2021/05/18 16:38:19;;;;;;;3.73;1.10;;;12.90;99.90;;;;;;5067625;28;20616;-86
2021/05/18 16:40:45;;;;;;;1.63;0.80;;;12.40;99.90;;;;;;5069724;28;20975;-87
2021/05/18 16:43:11;;;;;;;5.43;1.07;;;12.20;99.90;;;;;;5067468;28;20631;-86
2021/05/18 16:45:38;;;;;;;7.37;1.80;;;12.10;99.90;;;;;;5070239;28;20661;-86
2021/05/18 16:48:05;;;;;;;3.13;1.27;;;11.80;99.90;;;;;;5071484;28;20664;-85
2021/05/18 16:50:32;;;;;;;2.83;0.90;;;11.80;99.90;;;;;;5070684;28;20633;-85
2021/05/18 16:52:58;;;;;;;3.20;1.17;;;11.80;99.90;;;;;;5069757;28;20633;-85
2021/05/18 16:55:26;;;;;;;1.93;1.00;;;11.70;99.90;;;;;;5064834;28;20652;-86
2021/05/18 16:57:52;;;;;;;1.60;1.13;;;11.70;99.90;;;;;;5066239;28;20609;-86
2021/05/18 17:00:20;;;;;;;2.10;0.83;;;11.70;99.90;;;;;;5067406;28;20973;-85
2021/05/18 17:02:46;;;;;;;2.57;0.97;;;11.60;99.90;;;;;;5070036;28;21026;-86
2021/05/18 17:05:13;;;;;;;1.57;1.17;;;11.70;99.90;;;;;;5067617;28;20691;-85
2021/05/18 17:07:40;;;;;;;2.37;1.17;;;11.60;99.90;;;;;;5066544;28;20672;-86
2021/05/18 17:10:09;;;;;;;5.37;1.00;;;11.70;99.90;;;;;;5068912;28;21002;-85
2021/05/18 17:12:36;;;;;;;3.13;0.93;;;11.80;99.90;;;;;;5066741;28;20625;-86
2021/05/18 17:15:05;;;;;;;1.80;0.60;;;11.80;99.90;;;;;;5071676;28;20644;-85
2021/05/18 17:17:31;;;;;;;1.87;0.80;;;11.90;99.90;;;;;;5066377;28;20621;-85